createdAt,value
2023-11-19T00:02:13.095Z,20.76
2023-11-19T00:04:44.077Z,20.73
2023-11-19T00:07:15.211Z,20.71
2023-11-19T00:09:46.025Z,20.69
2023-11-19T00:12:16.957Z,20.67
2023-11-19T00:14:47.887Z,20.64
2023-11-19T00:17:18.663Z,20.62
2023-11-19T00:19:50.488Z,20.60
2023-11-19T00:22:22.959Z,20.56
2023-11-19T00:24:53.966Z,20.55
2023-11-19T00:27:25.384Z,20.54
2023-11-19T00:29:56.411Z,20.52
2023-11-19T00:32:27.718Z,20.51
2023-11-19T00:34:58.422Z,20.48
2023-11-19T00:37:29.317Z,20.47
2023-11-19T00:40:00.677Z,20.45
2023-11-19T00:42:31.454Z,20.44
2023-11-19T00:45:02.660Z,20.41
2023-11-19T00:47:33.802Z,20.39
2023-11-19T00:50:04.662Z,20.38
2023-11-19T00:52:35.411Z,20.34
2023-11-19T00:55:08.346Z,20.35
2023-11-19T00:57:39.391Z,20.33
2023-11-19T01:00:20.268Z,20.31
2023-11-19T01:02:52.786Z,20.28
2023-11-19T01:05:24.436Z,20.26
2023-11-19T01:07:55.872Z,20.25
2023-11-19T01:10:27.241Z,20.23
2023-11-19T01:12:58.608Z,20.22
2023-11-19T01:15:29.701Z,20.22
2023-11-19T01:18:00.775Z,20.21
2023-11-19T01:20:31.515Z,20.18
2023-11-19T01:23:02.192Z,20.18
2023-11-19T01:25:33.091Z,20.16
2023-11-19T01:28:04.046Z,20.14
2023-11-19T01:30:34.924Z,20.12
2023-11-19T01:33:08.768Z,20.10
2023-11-19T01:35:37.952Z,20.08
2023-11-19T01:38:09.705Z,20.04
2023-11-19T01:40:40.561Z,20.03
2023-11-19T01:43:12.743Z,20.01
2023-11-19T01:45:43.600Z,20.00
2023-11-19T01:48:16.410Z,19.98
2023-11-19T01:50:47.760Z,19.96
2023-11-19T01:53:19.265Z,19.95
2023-11-19T01:55:50.806Z,19.94
2023-11-19T01:58:21.666Z,19.93
2023-11-19T02:00:53.213Z,19.92
2023-11-19T02:03:26.996Z,19.90
2023-11-19T02:05:56.276Z,19.89
2023-11-19T02:08:27.350Z,19.86
2023-11-19T02:10:58.939Z,19.85
2023-11-19T02:13:30.894Z,19.84
2023-11-19T02:16:03.306Z,19.82
2023-11-19T02:18:34.076Z,19.83
2023-11-19T02:21:06.596Z,19.83
2023-11-19T02:23:37.707Z,19.82
2023-11-19T02:26:16.314Z,19.82
2023-11-19T02:28:47.576Z,19.81
2023-11-19T02:31:18.603Z,19.81
2023-11-19T02:33:51.135Z,19.81
2023-11-19T02:36:22.878Z,19.80
2023-11-19T02:38:53.810Z,19.79
2023-11-19T02:41:25.396Z,19.78
2023-11-19T02:43:56.178Z,19.76
2023-11-19T02:46:27.630Z,19.74
2023-11-19T02:48:58.516Z,19.73
2023-11-19T02:51:31.566Z,19.71
2023-11-19T02:54:02.601Z,19.69
2023-11-19T02:56:37.941Z,19.69
2023-11-19T02:59:19.429Z,19.67
2023-11-19T03:01:51.602Z,19.65
2023-11-19T03:04:24.295Z,19.64
2023-11-19T03:06:55.513Z,19.63
2023-11-19T03:09:26.537Z,19.62
2023-11-19T03:11:57.431Z,19.61
2023-11-19T03:14:28.601Z,19.59
2023-11-19T03:16:59.498Z,19.58
2023-11-19T03:19:30.825Z,19.57
2023-11-19T03:22:03.648Z,19.56
2023-11-19T03:24:34.703Z,19.55
2023-11-19T03:27:06.032Z,19.54
2023-11-19T03:29:36.784Z,19.53
2023-11-19T03:32:09.071Z,19.52
2023-11-19T03:34:39.805Z,19.51
2023-11-19T03:37:10.856Z,19.50
2023-11-19T03:39:41.488Z,19.49
2023-11-19T03:42:14.497Z,19.48
2023-11-19T03:44:45.247Z,19.47
2023-11-19T03:47:16.265Z,19.47
2023-11-19T03:49:51.826Z,19.46
2023-11-19T03:52:22.908Z,19.44
2023-11-19T03:54:54.423Z,19.43
2023-11-19T03:57:25.799Z,19.43
2023-11-19T03:59:57.155Z,19.42
2023-11-19T04:02:29.690Z,19.42
2023-11-19T04:05:00.455Z,19.40
2023-11-19T04:07:31.199Z,19.39
2023-11-19T04:10:02.145Z,19.38
2023-11-19T04:12:32.919Z,19.37
2023-11-19T04:15:04.660Z,19.37
2023-11-19T04:17:35.363Z,19.36
2023-11-19T04:20:11.861Z,19.34
2023-11-19T04:22:42.886Z,19.33
2023-11-19T04:25:15.251Z,19.32
2023-11-19T04:27:46.189Z,19.30
2023-11-19T04:30:17.778Z,19.30
2023-11-19T04:32:49.910Z,19.29
2023-11-19T04:35:21.488Z,19.27
2023-11-19T04:37:52.249Z,19.28
2023-11-19T04:40:24.090Z,19.27
2023-11-19T04:42:55.156Z,19.26
2023-11-19T04:45:25.875Z,19.26
2023-11-19T04:47:56.702Z,19.24
2023-11-19T04:50:28.437Z,19.23
2023-11-19T04:53:01.200Z,19.21
2023-11-19T04:55:32.259Z,19.20
2023-11-19T04:58:03.078Z,19.19
2023-11-19T05:00:34.491Z,19.17
2023-11-19T05:03:05.290Z,19.18
2023-11-19T05:05:36.192Z,19.17
2023-11-19T05:08:07.443Z,19.16
2023-11-19T05:10:38.790Z,19.15
2023-11-19T05:13:09.602Z,19.14
2023-11-19T05:15:40.725Z,19.13
2023-11-19T05:18:11.736Z,19.13
2023-11-19T05:20:42.901Z,19.12
2023-11-19T05:25:48.873Z,19.10
2023-11-19T05:28:19.880Z,19.09
2023-11-19T05:30:50.675Z,19.08
2023-11-19T05:33:21.722Z,19.07
2023-11-19T05:35:52.481Z,19.06
2023-11-19T05:38:23.416Z,19.04
2023-11-19T05:40:54.275Z,19.03
2023-11-19T05:43:25.080Z,19.02
2023-11-19T05:45:55.921Z,19.01
2023-11-19T05:48:28.538Z,19.00
2023-11-19T05:50:59.193Z,18.98
2023-11-19T05:53:30.592Z,18.98
2023-11-19T05:56:05.232Z,18.97
2023-11-19T05:58:37.055Z,18.96
2023-11-19T06:01:09.865Z,18.94
2023-11-19T06:03:41.018Z,18.95
2023-11-19T06:06:13.291Z,18.95
2023-11-19T06:08:44.575Z,18.94
2023-11-19T06:11:19.985Z,18.94
2023-11-19T06:13:52.334Z,18.94
2023-11-19T06:16:23.328Z,18.92
2023-11-19T06:18:55.025Z,18.94
2023-11-19T06:21:26.315Z,18.93
2023-11-19T06:23:57.153Z,18.91
2023-11-19T06:26:28.136Z,18.88
2023-11-19T06:28:59.246Z,18.85
2023-11-19T06:31:30.195Z,18.82
2023-11-19T06:34:01.182Z,18.79
2023-11-19T06:36:32.205Z,18.76
2023-11-19T06:39:03.052Z,18.73
2023-11-19T06:41:34.185Z,18.71
2023-11-19T06:44:05.822Z,18.70
2023-11-19T06:46:37.098Z,18.68
2023-11-19T06:49:08.603Z,18.66
2023-11-19T06:51:42.944Z,18.64
2023-11-19T06:54:14.023Z,18.63
2023-11-19T06:56:45.415Z,18.62
2023-11-19T06:59:17.608Z,18.60
2023-11-19T07:01:48.579Z,18.58
2023-11-19T07:04:19.515Z,18.56
2023-11-19T07:06:50.672Z,18.54
2023-11-19T07:09:22.398Z,18.51
2023-11-19T07:11:54.045Z,18.50
2023-11-19T07:14:24.991Z,18.47
2023-11-19T07:16:57.009Z,18.46
2023-11-19T07:19:28.174Z,18.44
2023-11-19T07:21:58.964Z,18.42
2023-11-19T07:24:30.479Z,18.41
2023-11-19T07:27:01.911Z,18.39
2023-11-19T07:29:34.214Z,18.39
2023-11-19T07:32:06.404Z,18.38
2023-11-19T07:34:38.324Z,18.38
2023-11-19T07:37:09.475Z,18.38
2023-11-19T07:39:42.602Z,18.38
2023-11-19T07:42:13.561Z,18.37
2023-11-19T07:44:45.474Z,18.39
2023-11-19T07:47:16.393Z,18.41
2023-11-19T07:49:47.469Z,18.43
2023-11-19T07:52:21.893Z,18.46
2023-11-19T07:54:53.317Z,18.48
2023-11-19T07:57:25.213Z,18.50
2023-11-19T07:59:56.288Z,18.52
2023-11-19T08:02:27.321Z,18.51
2023-11-19T08:04:58.896Z,18.55
2023-11-19T08:07:29.828Z,18.56
2023-11-19T08:10:01.380Z,18.59
2023-11-19T08:12:32.580Z,18.61
2023-11-19T08:15:03.479Z,18.63
2023-11-19T08:17:34.374Z,18.62
2023-11-19T08:20:06.380Z,18.65
2023-11-19T08:22:37.852Z,18.67
2023-11-19T08:25:10.715Z,18.69
2023-11-19T08:27:42.084Z,18.72
2023-11-19T08:30:14.792Z,18.75
2023-11-19T08:32:45.566Z,18.79
2023-11-19T08:35:17.798Z,18.84
2023-11-19T08:37:49.007Z,18.87
2023-11-19T08:40:21.253Z,18.93
2023-11-19T08:42:52.490Z,18.97
2023-11-19T08:45:23.388Z,19.00
2023-11-19T08:47:54.797Z,19.03
2023-11-19T08:50:26.078Z,19.05
2023-11-19T08:52:57.603Z,19.08
2023-11-19T08:55:29.529Z,19.08
2023-11-19T08:58:02.136Z,19.13
2023-11-19T09:00:33.895Z,19.17
2023-11-19T09:03:05.454Z,19.20
2023-11-19T09:05:37.024Z,19.22
2023-11-19T09:08:09.844Z,19.24
2023-11-19T09:10:41.293Z,19.26
2023-11-19T09:13:12.324Z,19.29
2023-11-19T09:15:43.803Z,19.31
2023-11-19T09:18:15.081Z,19.34
2023-11-19T09:20:46.658Z,19.36
2023-11-19T09:23:17.840Z,19.37
2023-11-19T09:25:48.874Z,19.38
2023-11-19T09:28:20.009Z,19.41
2023-11-19T09:30:51.052Z,19.43
2023-11-19T09:33:22.581Z,19.46
2023-11-19T09:35:54.499Z,19.49
2023-11-19T09:38:25.757Z,19.52
2023-11-19T09:40:58.432Z,19.54
2023-11-19T09:43:30.783Z,19.57
2023-11-19T09:46:07.991Z,19.60
2023-11-19T09:48:41.237Z,19.62
2023-11-19T09:51:13.637Z,19.66
2023-11-19T09:53:44.724Z,19.69
2023-11-19T09:56:18.249Z,19.73
2023-11-19T09:58:49.817Z,19.76
2023-11-19T10:01:26.504Z,19.78
2023-11-19T10:04:01.014Z,19.81
2023-11-19T10:06:34.435Z,19.84
2023-11-19T10:09:06.590Z,19.89
2023-11-19T10:11:37.606Z,19.92
2023-11-19T10:14:08.858Z,19.94
2023-11-19T10:16:40.597Z,19.97
2023-11-19T10:19:15.018Z,19.99
2023-11-19T10:21:48.135Z,20.02
2023-11-19T10:26:53.317Z,20.07
2023-11-19T10:29:26.047Z,20.10
2023-11-19T10:32:24.059Z,20.13
2023-11-19T10:34:52.777Z,20.16
2023-11-19T10:37:34.336Z,20.18
2023-11-19T10:40:06.883Z,20.21
2023-11-19T10:42:37.972Z,20.24
2023-11-19T10:45:26.243Z,20.26
2023-11-19T10:48:00.160Z,20.28
2023-11-19T10:50:31.805Z,20.30
2023-11-19T10:53:04.498Z,20.34
2023-11-19T10:55:37.263Z,20.36
2023-11-19T10:58:09.651Z,20.38
2023-11-19T11:00:47.356Z,20.40
2023-11-19T11:03:21.583Z,20.41
2023-11-19T11:05:53.922Z,20.44
2023-11-19T11:08:25.092Z,20.44
2023-11-19T11:10:58.910Z,20.47
2023-11-19T11:13:30.568Z,20.48
2023-11-19T11:16:02.715Z,20.48
2023-11-19T11:18:33.923Z,20.51
2023-11-19T11:21:10.739Z,20.53
2023-11-19T11:24:15.183Z,20.54
2023-11-19T11:27:19.408Z,20.55
2023-11-19T11:29:54.148Z,20.57
2023-11-19T11:32:36.196Z,20.57
2023-11-19T11:35:22.369Z,20.59
2023-11-19T11:37:58.471Z,20.60
2023-11-19T11:40:29.558Z,20.61
2023-11-19T11:43:01.088Z,20.63
2023-11-19T11:45:44.619Z,20.65
2023-11-19T11:48:18.537Z,20.65
2023-11-19T11:50:55.034Z,20.66
2023-11-19T11:53:27.648Z,20.64
2023-11-19T11:56:05.208Z,20.65
2023-11-19T11:58:40.242Z,20.66
2023-11-19T12:01:21.471Z,20.66
2023-11-19T12:03:58.250Z,20.62
2023-11-19T12:06:31.461Z,20.65
2023-11-19T12:09:06.504Z,20.65
2023-11-19T12:11:38.950Z,20.65
2023-11-19T12:14:10.457Z,20.65
2023-11-19T12:16:42.301Z,20.64
2023-11-19T12:19:14.867Z,20.63
2023-11-19T12:21:47.035Z,20.63
2023-11-19T12:24:18.881Z,20.63
2023-11-19T12:26:53.823Z,20.63
2023-11-19T12:29:25.045Z,20.63
2023-11-19T12:34:38.028Z,20.63
2023-11-19T12:37:11.060Z,20.64
2023-11-19T12:39:42.316Z,20.64
2023-11-19T12:42:14.585Z,20.63
2023-11-19T12:44:58.951Z,20.64
2023-11-19T12:47:31.385Z,20.64
2023-11-19T12:50:02.736Z,20.64
2023-11-19T12:52:34.085Z,20.64
2023-11-19T12:55:05.273Z,20.64
2023-11-19T12:57:43.956Z,20.63
2023-11-19T13:00:24.644Z,20.63
2023-11-19T13:02:58.022Z,20.62
2023-11-19T13:05:35.247Z,20.61
2023-11-19T13:08:08.213Z,20.61
2023-11-19T13:10:55.231Z,20.61
2023-11-19T13:13:26.316Z,20.60
2023-11-19T13:16:04.315Z,20.60
2023-11-19T13:21:09.932Z,20.59
2023-11-19T13:23:41.056Z,20.59
2023-11-19T13:26:12.107Z,20.58
2023-11-19T13:28:43.152Z,20.58
2023-11-19T13:31:14.258Z,20.58
2023-11-19T13:33:45.547Z,20.57
2023-11-19T13:36:17.836Z,20.57
2023-11-19T13:38:49.215Z,20.56
2023-11-19T13:41:21.813Z,20.53
2023-11-19T13:43:52.766Z,20.56
2023-11-19T13:46:23.953Z,20.56
2023-11-19T13:48:55.007Z,20.58
2023-11-19T13:51:27.132Z,20.59
2023-11-19T13:53:58.434Z,20.59
2023-11-19T13:56:29.702Z,20.59
2023-11-19T13:59:02.121Z,20.59
2023-11-19T14:01:33.488Z,20.58
2023-11-19T14:04:04.587Z,20.59
2023-11-19T14:06:35.721Z,20.59
2023-11-19T14:09:09.184Z,20.60
2023-11-19T14:11:40.410Z,20.61
2023-11-19T14:14:11.628Z,20.56
2023-11-19T14:16:43.013Z,20.61
2023-11-19T14:19:15.144Z,20.61
2023-11-19T14:21:46.630Z,20.61
2023-11-19T14:24:17.902Z,20.61
2023-11-19T14:26:52.366Z,20.61
2023-11-19T14:29:23.819Z,20.60
2023-11-19T14:31:55.267Z,20.61
2023-11-19T14:34:27.594Z,20.62
2023-11-19T14:36:58.934Z,20.63
2023-11-19T14:39:32.308Z,20.62
2023-11-19T14:42:05.909Z,20.65
2023-11-19T14:44:37.559Z,20.65
2023-11-19T14:47:09.353Z,20.65
2023-11-19T14:49:40.603Z,20.66
2023-11-19T14:54:47.172Z,20.66
2023-11-19T14:57:18.544Z,20.64
2023-11-19T14:59:49.505Z,20.66
2023-11-19T15:02:20.789Z,20.67
2023-11-19T15:04:51.985Z,20.68
2023-11-19T15:07:24.123Z,20.68
2023-11-19T15:09:55.253Z,20.66
2023-11-19T15:12:28.115Z,20.68
2023-11-19T15:14:59.200Z,20.67
2023-11-19T15:17:30.919Z,20.67
2023-11-19T15:20:02.126Z,20.67
2023-11-19T15:22:33.665Z,20.67
2023-11-19T15:25:04.618Z,20.66
2023-11-19T15:27:35.669Z,20.66
2023-11-19T15:30:09.906Z,20.66
2023-11-19T15:32:41.038Z,20.66
2023-11-19T15:35:14.883Z,20.65
2023-11-19T15:37:46.214Z,20.64
2023-11-19T15:40:19.402Z,20.65
2023-11-19T15:42:50.601Z,20.65
2023-11-19T15:45:21.520Z,20.66
2023-11-19T15:47:53.337Z,20.64
2023-11-19T15:50:24.254Z,20.67
2023-11-19T15:52:55.388Z,20.68
2023-11-19T15:55:26.452Z,20.68
2023-11-19T15:57:57.487Z,20.67
2023-11-19T16:00:28.314Z,20.67
2023-11-19T16:02:59.526Z,20.66
2023-11-19T16:05:30.918Z,20.65
2023-11-19T16:08:02.669Z,20.65
2023-11-19T16:10:33.796Z,20.63
2023-11-19T16:13:05.169Z,20.63
2023-11-19T16:15:37.133Z,20.62
2023-11-19T16:18:10.972Z,20.61
2023-11-19T16:20:40.580Z,20.62
2023-11-19T16:23:13.322Z,20.59
2023-11-19T16:25:44.308Z,20.58
2023-11-19T16:28:15.275Z,20.60
2023-11-19T16:30:46.409Z,20.61
2023-11-19T16:33:25.134Z,20.62
2023-11-19T16:36:01.814Z,20.64
2023-11-19T16:38:32.905Z,20.66
2023-11-19T16:41:05.916Z,20.66
2023-11-19T16:43:37.072Z,20.68
2023-11-19T16:46:09.273Z,20.70
2023-11-19T16:48:40.426Z,20.70
2023-11-19T16:51:16.602Z,20.70
2023-11-19T16:53:52.200Z,20.69
2023-11-19T16:56:23.321Z,20.71
2023-11-19T16:58:54.314Z,20.72
2023-11-19T17:01:25.646Z,20.73
2023-11-19T17:03:56.935Z,20.73
2023-11-19T17:06:27.973Z,20.74
2023-11-19T17:08:59.065Z,20.76
2023-11-19T17:11:30.237Z,20.77
2023-11-19T17:14:01.969Z,20.78
2023-11-19T17:16:32.970Z,20.79
2023-11-19T17:19:04.168Z,20.81
2023-11-19T17:21:35.745Z,20.83
2023-11-19T17:24:08.199Z,20.85
2023-11-19T17:29:13.912Z,20.88
2023-11-19T17:31:45.836Z,20.89
2023-11-19T17:34:17.370Z,20.91
2023-11-19T17:36:48.675Z,20.93
2023-11-19T17:39:20.268Z,20.96
2023-11-19T17:41:51.352Z,20.98
2023-11-19T17:44:23.997Z,21.01
2023-11-19T17:46:55.181Z,21.03
2023-11-19T17:49:26.438Z,21.06
2023-11-19T17:51:57.797Z,21.08
2023-11-19T17:54:28.870Z,21.10
2023-11-19T17:56:59.739Z,21.12
2023-11-19T17:59:31.068Z,21.14
2023-11-19T18:02:03.496Z,21.16
2023-11-19T18:04:38.576Z,21.18
2023-11-19T18:07:10.393Z,21.19
2023-11-19T18:09:42.147Z,21.21
2023-11-19T18:12:16.644Z,21.20
2023-11-19T18:17:22.310Z,21.27
2023-11-19T18:19:53.463Z,21.29
2023-11-19T18:22:25.481Z,21.29
2023-11-19T18:24:56.511Z,21.32
2023-11-19T18:27:27.890Z,21.34
2023-11-19T18:29:59.006Z,21.35
2023-11-19T18:32:30.222Z,21.36
2023-11-19T18:35:01.234Z,21.37
2023-11-19T18:37:32.374Z,21.39
2023-11-19T18:40:03.319Z,21.41
2023-11-19T18:42:35.515Z,21.43
2023-11-19T18:45:09.401Z,21.44
2023-11-19T18:47:40.346Z,21.46
2023-11-19T18:50:12.606Z,21.48
2023-11-19T18:52:43.788Z,21.49
2023-11-19T18:55:15.245Z,21.50
2023-11-19T18:57:46.332Z,21.51
2023-11-19T19:00:19.238Z,21.53
2023-11-19T19:05:27.161Z,21.54
2023-11-19T19:07:59.261Z,21.55
2023-11-19T19:10:30.527Z,21.55
2023-11-19T19:13:01.599Z,21.57
2023-11-19T19:15:32.702Z,21.55
2023-11-19T19:18:04.417Z,21.57
2023-11-19T19:20:35.890Z,21.57
2023-11-19T19:25:38.459Z,21.57
2023-11-19T19:30:45.980Z,21.59
2023-11-19T19:33:17.182Z,21.60
2023-11-19T19:35:48.386Z,21.60
2023-11-19T19:38:19.962Z,21.61
2023-11-19T19:40:51.288Z,21.62
2023-11-19T19:43:22.273Z,21.62
2023-11-19T19:45:55.762Z,21.63
2023-11-19T19:48:26.923Z,21.63
2023-11-19T19:50:58.099Z,21.63
2023-11-19T19:53:29.950Z,21.65
2023-11-19T19:56:01.016Z,21.66
2023-11-19T19:58:33.500Z,21.67
2023-11-19T20:01:05.204Z,21.68
2023-11-19T20:03:37.033Z,21.69
2023-11-19T20:06:12.881Z,21.70
2023-11-19T20:08:44.549Z,21.71
2023-11-19T20:11:15.807Z,21.72
2023-11-19T20:13:46.887Z,21.73
2023-11-19T20:16:18.852Z,21.75
2023-11-19T20:18:50.068Z,21.77
2023-11-19T20:21:21.515Z,21.78
2023-11-19T20:23:52.503Z,21.78
2023-11-19T20:26:23.882Z,21.79
2023-11-19T20:31:29.617Z,21.82
2023-11-19T20:34:02.264Z,21.82
2023-11-19T20:36:33.357Z,21.82
2023-11-19T20:39:04.618Z,21.81
2023-11-19T20:41:35.873Z,21.81
2023-11-19T20:44:09.474Z,21.81
2023-11-19T20:46:40.796Z,21.80
2023-11-19T20:49:12.214Z,21.78
2023-11-19T20:51:43.409Z,21.77
2023-11-19T20:54:15.025Z,21.76
2023-11-19T20:56:46.199Z,21.73
2023-11-19T20:59:20.130Z,21.75
2023-11-19T21:01:51.180Z,21.74
2023-11-19T21:04:22.013Z,21.73
2023-11-19T21:06:55.851Z,21.72
2023-11-19T21:09:27.036Z,21.71
2023-11-19T21:11:58.301Z,21.71
2023-11-19T21:14:29.892Z,21.72
2023-11-19T21:17:01.301Z,21.72
2023-11-19T21:22:08.843Z,21.72
2023-11-19T21:24:39.887Z,21.73
2023-11-19T21:27:12.968Z,21.72
2023-11-19T21:29:44.107Z,21.71
2023-11-19T21:32:15.116Z,21.70
2023-11-19T21:34:46.146Z,21.67
2023-11-19T21:37:17.316Z,21.64
2023-11-19T21:39:48.562Z,21.61
2023-11-19T21:42:19.736Z,21.57
2023-11-19T21:44:50.559Z,21.55
2023-11-19T21:47:21.693Z,21.52
2023-11-19T21:49:55.286Z,21.50
2023-11-19T21:52:26.484Z,21.47
2023-11-19T21:54:57.444Z,21.43
2023-11-19T21:57:28.583Z,21.42
2023-11-19T21:59:59.507Z,21.39
2023-11-19T22:02:30.978Z,21.36
2023-11-19T22:05:02.153Z,21.33
2023-11-19T22:07:33.440Z,21.30
2023-11-19T22:10:05.324Z,21.26
2023-11-19T22:12:36.121Z,21.27
2023-11-19T22:15:08.539Z,21.24
2023-11-19T22:17:39.900Z,21.22
2023-11-19T22:22:46.872Z,21.16
2023-11-19T22:25:18.018Z,21.15
2023-11-19T22:27:49.205Z,21.13
2023-11-19T22:30:20.321Z,21.10
2023-11-19T22:32:52.468Z,21.07
2023-11-19T22:35:23.610Z,21.06
2023-11-19T22:37:54.431Z,21.04
2023-11-19T22:40:25.740Z,21.02
2023-11-19T22:42:56.635Z,21.01
2023-11-19T22:45:27.641Z,20.98
2023-11-19T22:47:58.557Z,20.94
2023-11-19T22:50:29.562Z,20.92
2023-11-19T22:53:01.578Z,20.89
2023-11-19T22:55:32.557Z,20.87
2023-11-19T22:58:04.592Z,20.84
2023-11-19T23:00:37.778Z,20.81
2023-11-19T23:03:08.935Z,20.79
2023-11-19T23:05:40.007Z,20.78
2023-11-19T23:08:12.525Z,20.76
2023-11-19T23:10:43.518Z,20.73
2023-11-19T23:13:14.276Z,20.72
2023-11-19T23:15:45.139Z,20.68
2023-11-19T23:18:15.867Z,20.66
2023-11-19T23:20:47.244Z,20.64
2023-11-19T23:23:18.293Z,20.59
2023-11-19T23:25:50.416Z,20.59
2023-11-19T23:28:21.453Z,20.56
2023-11-19T23:30:52.435Z,20.54
2023-11-19T23:33:24.215Z,20.51
2023-11-19T23:35:55.313Z,20.47
2023-11-19T23:38:26.138Z,20.46
2023-11-19T23:40:56.863Z,20.44
2023-11-19T23:43:27.653Z,20.43
2023-11-19T23:45:58.407Z,20.41
2023-11-19T23:48:30.975Z,20.39
2023-11-19T23:51:01.749Z,20.37
2023-11-19T23:53:32.504Z,20.36
2023-11-19T23:56:03.609Z,20.34
2023-11-19T23:58:34.849Z,20.31
